Time;durP1;ratioP1;P1;durP2;ratioP2;P2;SDS_P1;SDS_P2;PMS_P1;PMS_P2;Temp;Humidity;BMP_temperature;BMP_pressure;BME280_temperature;BME280_humidity;BME280_pressure;Samples;Min_cycle;Max_cycle;Signal;HPM_P1;HPM_P2
2023/01/11 00:01:31;;;;;;;0.20;0.20;;;;;;;;;;5109200;28;20024;-83
2023/01/11 00:03:57;;;;;;;0.43;0.43;;;;;;;;;;5103075;28;20463;-85
2023/01/11 00:06:23;;;;;;;0.20;0.20;;;;;;;;;;5086181;28;20051;-83
2023/01/11 00:08:48;;;;;;;0.20;0.20;;;;;;;;;;5100196;28;20054;-83
2023/01/11 00:11:15;;;;;;;0.43;0.43;;;;;;;;;;5089242;28;20019;-84
2023/01/11 00:13:42;;;;;;;0.10;0.10;;;;;;;;;;5090469;28;20031;-83
2023/01/11 00:16:08;;;;;;;0.68;0.60;;;;;;;;;;5120346;27;20024;-85
2023/01/11 00:18:35;;;;;;;0.22;0.22;;;;;;;;;;5099687;28;20515;-86
2023/01/11 00:21:04;;;;;;;0.43;0.38;;;;;;;;;;5099593;28;20027;-86
2023/01/11 00:23:37;;;;;;;0.25;0.25;;;;;;;;;;5084085;28;20023;-82
2023/01/11 00:26:07;;;;;;;0.10;0.10;;;;;;;;;;5099470;28;20031;-86
2023/01/11 00:28:32;;;;;;;0.30;0.30;;;;;;;;;;5086615;28;20434;-84
2023/01/11 00:30:58;;;;;;;0.50;0.47;;;;;;;;;;5104901;28;20106;-83
2023/01/11 00:33:24;;;;;;;2.92;0.75;;;;;;;;;;5102765;28;20023;-83
2023/01/11 00:35:52;;;;;;;1.88;0.82;;;;;;;;;;5084589;28;20157;-83
2023/01/11 00:38:52;;;;;;;0.40;0.40;;;;;;;;;;5082389;28;20023;-87
2023/01/11 00:49:31;;;;;;;0.47;0.35;;;;;;;;;;5105998;28;20029;-87
2023/01/11 00:51:57;;;;;;;0.35;0.35;;;;;;;;;;5104717;28;20110;-87
2023/01/11 00:54:22;;;;;;;0.75;0.65;;;;;;;;;;5106679;28;20031;-86
2023/01/11 00:56:47;;;;;;;0.25;0.25;;;;;;;;;;5086151;28;20054;-88
2023/01/11 00:59:13;;;;;;;0.40;0.40;;;;;;;;;;5086482;28;20020;-83
2023/01/11 01:01:38;;;;;;;0.68;0.60;;;;;;;;;;5103001;28;20076;-88
2023/01/11 01:04:04;;;;;;;0.30;0.30;;;;;;;;;;5119287;27;20110;-86
2023/01/11 01:06:30;;;;;;;2.10;0.70;;;;;;;;;;5118471;27;20891;-87
2023/01/11 01:08:55;;;;;;;1.33;1.23;;;;;;;;;;5083079;28;20042;-84
2023/01/11 01:11:21;;;;;;;1.45;0.52;;;;;;;;;;5083579;28;20027;-86
2023/01/11 01:16:31;;;;;;;1.73;1.60;;;;;;;;;;5102363;28;20046;-87
2023/01/11 01:18:57;;;;;;;0.70;0.70;;;;;;;;;;5101590;28;20020;-91
2023/01/11 01:21:25;;;;;;;2.22;1.13;;;;;;;;;;5085642;28;20426;-88
2023/01/11 01:23:53;;;;;;;2.05;1.50;;;;;;;;;;5103413;28;20027;-85
2023/01/11 01:26:19;;;;;;;2.53;1.48;;;;;;;;;;5090010;28;20034;-86
2023/01/11 01:28:45;;;;;;;1.25;1.15;;;;;;;;;;5110239;28;20039;-86
2023/01/11 01:31:10;;;;;;;1.20;1.10;;;;;;;;;;5085390;28;20035;-87
2023/01/11 01:33:36;;;;;;;2.40;1.27;;;;;;;;;;5085257;28;20032;-89
2023/01/11 01:36:02;;;;;;;4.68;1.58;;;;;;;;;;5085729;28;20039;-88
2023/01/11 01:38:27;;;;;;;1.80;1.38;;;;;;;;;;5099558;28;20028;-85
2023/01/11 01:40:55;;;;;;;1.20;1.10;;;;;;;;;;5084558;28;20038;-88
2023/01/11 01:43:22;;;;;;;1.00;0.95;;;;;;;;;;5084599;28;20024;-89
2023/01/11 01:45:49;;;;;;;1.48;1.38;;;;;;;;;;5105463;28;20035;-88
2023/01/11 01:48:17;;;;;;;1.15;1.15;;;;;;;;;;5105037;28;20431;-85
2023/01/11 01:50:59;;;;;;;2.90;1.92;;;;;;;;;;5103744;28;20034;-87
2023/01/11 01:53:37;;;;;;;5.57;1.65;;;;;;;;;;5085564;28;20383;-84
2023/01/11 01:56:09;;;;;;;1.58;1.48;;;;;;;;;;5078884;28;20023;-87
2023/01/11 01:58:42;;;;;;;2.58;2.17;;;;;;;;;;5091518;28;20031;-84
2023/01/11 02:03:52;;;;;;;1.70;1.45;;;;;;;;;;5103571;28;20038;-83
2023/01/11 02:06:21;;;;;;;2.42;2.08;;;;;;;;;;5101689;28;20028;-86
2023/01/11 02:08:54;;;;;;;1.65;1.35;;;;;;;;;;5087605;28;20476;-88
2023/01/11 02:11:30;;;;;;;1.15;0.68;;;;;;;;;;5080702;28;20036;-87
2023/01/11 02:14:01;;;;;;;2.47;1.50;;;;;;;;;;5086507;28;20032;-86
2023/01/11 02:16:27;;;;;;;2.28;1.70;;;;;;;;;;5106567;28;20483;-85
2023/01/11 02:18:54;;;;;;;3.95;1.70;;;;;;;;;;5082680;28;20033;-86
2023/01/11 02:21:28;;;;;;;1.48;1.20;;;;;;;;;;5107374;28;20032;-84
2023/01/11 02:24:08;;;;;;;2.83;1.75;;;;;;;;;;5085675;28;20407;-84
2023/01/11 02:26:55;;;;;;;;;;;;;;;;;;5085933;28;20028;-86
2023/01/11 02:29:41;;;;;;;2.40;2.03;;;;;;;;;;5106587;28;19950;-84
2023/01/11 02:32:19;;;;;;;1.50;1.40;;;;;;;;;;5086446;28;20052;-88
2023/01/11 02:35:20;;;;;;;1.58;1.10;;;;;;;;;;5087251;28;20020;-88
2023/01/11 02:37:48;;;;;;;1.75;1.17;;;;;;;;;;5104179;28;20044;-86
2023/01/11 02:40:19;;;;;;;4.05;2.40;;;;;;;;;;5083298;28;20031;-85
2023/01/11 02:46:12;;;;;;;1.77;1.48;;;;;;;;;;5102897;28;20121;-83
2023/01/11 02:48:58;;;;;;;5.93;1.85;;;;;;;;;;5098672;28;20031;-86
2023/01/11 02:51:59;;;;;;;1.20;1.10;;;;;;;;;;5080992;28;20104;-88
2023/01/11 02:54:29;;;;;;;1.33;1.23;;;;;;;;;;5102462;28;20051;-89
2023/01/11 02:56:57;;;;;;;4.07;1.48;;;;;;;;;;5105002;28;20024;-90
2023/01/11 02:59:30;;;;;;;1.35;1.25;;;;;;;;;;5100366;28;20089;-88
2023/01/11 03:01:55;;;;;;;2.10;1.33;;;;;;;;;;5081693;28;20491;-87
2023/01/11 03:04:23;;;;;;;1.88;0.77;;;;;;;;;;5086826;28;20024;-84
2023/01/11 03:06:53;;;;;;;1.52;1.25;;;;;;;;;;5108642;28;20077;-87
2023/01/11 03:09:30;;;;;;;1.38;0.73;;;;;;;;;;5088249;28;20023;-85
2023/01/11 03:13:11;;;;;;;2.80;1.58;;;;;;;;;;5089600;28;20085;-84
2023/01/11 03:15:33;;;;;;;1.38;1.05;;;;;;;;;;5091099;28;20149;-86
2023/01/11 03:18:27;;;;;;;2.40;1.40;;;;;;;;;;5119644;27;20383;-85
2023/01/11 03:21:22;;;;;;;1.60;1.23;;;;;;;;;;5099776;28;20571;-87
2023/01/11 03:23:54;;;;;;;2.42;1.33;;;;;;;;;;5108543;28;20091;-88
2023/01/11 03:27:01;;;;;;;1.02;1.00;;;;;;;;;;5090794;28;20486;-87
2023/01/11 03:29:43;;;;;;;2.80;1.67;;;;;;;;;;5105352;28;20404;-84
2023/01/11 03:32:11;;;;;;;1.60;1.50;;;;;;;;;;5105486;28;20077;-86
2023/01/11 03:34:46;;;;;;;3.58;2.63;;;;;;;;;;5087109;28;20038;-85
2023/01/11 03:37:32;;;;;;;2.78;1.73;;;;;;;;;;5088699;28;20495;-86
2023/01/11 03:40:12;;;;;;;2.97;1.65;;;;;;;;;;5083152;28;20050;-85
2023/01/11 03:43:09;;;;;;;;;;;;;;;;;;5092148;28;20042;-86
2023/01/11 03:45:26;;;;;;;2.10;1.15;;;;;;;;;;5098633;28;19976;-86
2023/01/11 03:47:54;;;;;;;0.52;0.52;;;;;;;;;;5084880;28;20422;-87
2023/01/11 03:50:21;;;;;;;2.88;1.77;;;;;;;;;;5107900;28;20027;-88
2023/01/11 03:52:48;;;;;;;6.20;3.13;;;;;;;;;;5087915;28;20024;-86
2023/01/11 03:55:16;;;;;;;4.03;2.38;;;;;;;;;;5086814;28;20035;-84
2023/01/11 03:57:50;;;;;;;3.70;2.03;;;;;;;;;;5087449;28;20028;-86
2023/01/11 04:00:21;;;;;;;4.85;2.92;;;;;;;;;;5084337;28;20107;-88
2023/01/11 04:02:48;;;;;;;4.22;3.17;;;;;;;;;;5087197;28;20035;-83
2023/01/11 04:05:14;;;;;;;2.97;2.03;;;;;;;;;;5081571;28;20019;-87
2023/01/11 04:07:39;;;;;;;9.77;1.95;;;;;;;;;;5101048;28;20030;-85
2023/01/11 04:10:05;;;;;;;2.15;1.95;;;;;;;;;;5102242;28;20030;-84
2023/01/11 04:12:30;;;;;;;5.32;2.92;;;;;;;;;;5085879;28;20031;-86
2023/01/11 04:14:56;;;;;;;4.78;2.67;;;;;;;;;;5102244;28;20023;-84
2023/01/11 04:17:21;;;;;;;4.55;2.28;;;;;;;;;;5104638;28;20472;-84
2023/01/11 04:19:47;;;;;;;5.80;3.40;;;;;;;;;;5087429;28;20459;-84
2023/01/11 04:22:12;;;;;;;6.13;2.67;;;;;;;;;;5106972;28;20379;-86
2023/01/11 04:24:38;;;;;;;7.93;4.28;;;;;;;;;;5089499;28;20065;-85
2023/01/11 04:27:03;;;;;;;4.25;2.92;;;;;;;;;;5076314;28;20028;-85
2023/01/11 04:29:29;;;;;;;3.20;1.92;;;;;;;;;;5083005;28;20548;-86
2023/01/11 04:31:54;;;;;;;2.70;2.22;;;;;;;;;;5104464;28;20061;-84
2023/01/11 04:34:22;;;;;;;3.30;2.25;;;;;;;;;;5086675;28;20035;-85
2023/01/11 04:36:48;;;;;;;2.75;2.30;;;;;;;;;;5118940;27;20028;-85
2023/01/11 04:39:13;;;;;;;2.03;1.58;;;;;;;;;;5104168;28;20031;-85
2023/01/11 04:44:23;;;;;;;1.50;0.95;;;;;;;;;;5101708;28;20063;-84
2023/01/11 04:46:49;;;;;;;2.42;1.73;;;;;;;;;;5078152;28;20020;-86
2023/01/11 04:49:14;;;;;;;1.60;1.48;;;;;;;;;;5101940;28;20035;-84
2023/01/11 04:51:40;;;;;;;1.42;1.05;;;;;;;;;;5100352;28;20031;-85
2023/01/11 04:54:05;;;;;;;1.33;1.23;;;;;;;;;;5085357;28;20104;-85
2023/01/11 04:56:31;;;;;;;1.73;1.33;;;;;;;;;;5087082;28;20036;-83
2023/01/11 04:58:57;;;;;;;0.50;0.50;;;;;;;;;;5102926;28;20057;-84
2023/01/11 05:01:22;;;;;;;1.10;0.95;;;;;;;;;;5107206;28;20024;-85
2023/01/11 05:03:48;;;;;;;1.00;0.82;;;;;;;;;;5084746;28;20028;-84
2023/01/11 05:06:14;;;;;;;1.40;1.02;;;;;;;;;;5089773;28;20110;-87
2023/01/11 05:08:47;;;;;;;1.35;1.15;;;;;;;;;;5087039;28;20152;-86
2023/01/11 05:11:15;;;;;;;2.55;1.38;;;;;;;;;;5074181;28;20047;-87
2023/01/11 05:13:41;;;;;;;0.73;0.73;;;;;;;;;;5077351;28;20536;-86
2023/01/11 05:16:18;;;;;;;0.90;0.90;;;;;;;;;;5079806;28;20024;-84
2023/01/11 05:18:49;;;;;;;2.28;1.25;;;;;;;;;;5105251;28;20440;-84
2023/01/11 05:21:18;;;;;;;0.80;0.75;;;;;;;;;;5109984;28;20387;-86
2023/01/11 05:23:44;;;;;;;2.00;1.65;;;;;;;;;;5102081;28;20107;-85
2023/01/11 05:26:16;;;;;;;3.75;2.05;;;;;;;;;;5085121;28;20034;-87
2023/01/11 05:28:42;;;;;;;3.17;1.75;;;;;;;;;;5100776;28;20046;-84
2023/01/11 05:31:07;;;;;;;1.42;0.85;;;;;;;;;;5105000;28;20027;-84
2023/01/11 05:33:33;;;;;;;1.85;1.75;;;;;;;;;;5083904;28;20019;-84
2023/01/11 05:36:00;;;;;;;1.23;0.95;;;;;;;;;;5079248;28;20467;-85
2023/01/11 05:38:26;;;;;;;6.35;2.03;;;;;;;;;;5084310;28;20036;-86
2023/01/11 05:41:03;;;;;;;2.67;1.45;;;;;;;;;;5078193;28;20024;-87
2023/01/11 05:43:30;;;;;;;3.70;2.28;;;;;;;;;;5094354;28;20480;-85
2023/01/11 05:45:56;;;;;;;3.55;2.17;;;;;;;;;;5099865;28;20051;-87
2023/01/11 05:48:22;;;;;;;3.42;1.65;;;;;;;;;;5098095;28;20043;-88
2023/01/11 05:50:55;;;;;;;2.22;1.67;;;;;;;;;;5085468;28;20085;-87
2023/01/11 05:53:22;;;;;;;1.88;1.67;;;;;;;;;;5079590;28;20036;-89
2023/01/11 05:55:55;;;;;;;2.15;1.63;;;;;;;;;;5093687;28;20106;-83
2023/01/11 05:58:22;;;;;;;4.05;2.53;;;;;;;;;;5104315;28;20049;-86
2023/01/11 06:00:50;;;;;;;1.88;1.20;;;;;;;;;;5077524;28;20020;-87
2023/01/11 06:03:16;;;;;;;2.20;1.63;;;;;;;;;;5078580;28;20031;-85
2023/01/11 06:05:42;;;;;;;3.30;1.92;;;;;;;;;;5102310;28;20501;-85
2023/01/11 06:08:07;;;;;;;2.55;1.63;;;;;;;;;;5081368;28;20024;-84
2023/01/11 06:10:33;;;;;;;1.17;1.00;;;;;;;;;;5119133;28;20032;-85
2023/01/11 06:15:42;;;;;;;0.90;0.90;;;;;;;;;;5094981;28;20477;-84
2023/01/11 06:18:08;;;;;;;3.85;1.13;;;;;;;;;;5069624;28;20044;-87
2023/01/11 06:20:33;;;;;;;3.15;1.80;;;;;;;;;;5085956;28;20566;-90
2023/01/11 06:22:59;;;;;;;2.10;1.73;;;;;;;;;;5081561;28;20023;-84
2023/01/11 06:25:24;;;;;;;2.58;1.40;;;;;;;;;;5096246;28;20522;-85
2023/01/11 06:27:51;;;;;;;1.63;1.52;;;;;;;;;;5098578;28;20057;-86
2023/01/11 06:30:17;;;;;;;3.53;2.03;;;;;;;;;;5098521;28;20058;-83
2023/01/11 06:32:42;;;;;;;2.03;1.63;;;;;;;;;;5078160;28;20023;-83
2023/01/11 06:35:08;;;;;;;2.83;2.53;;;;;;;;;;5097066;28;20467;-83
2023/01/11 06:37:33;;;;;;;2.38;2.17;;;;;;;;;;5088480;28;20028;-85
2023/01/11 06:39:59;;;;;;;2.67;2.08;;;;;;;;;;5082793;28;20384;-84
2023/01/11 06:42:24;;;;;;;5.68;1.98;;;;;;;;;;5106295;28;20027;-83
2023/01/11 06:44:49;;;;;;;3.35;2.17;;;;;;;;;;5084812;28;20080;-85
2023/01/11 06:47:15;;;;;;;3.42;2.47;;;;;;;;;;5080302;28;20504;-87
2023/01/11 06:49:40;;;;;;;2.15;1.65;;;;;;;;;;5081267;28;20034;-85
2023/01/11 06:52:06;;;;;;;1.27;1.15;;;;;;;;;;5103692;28;20020;-86
2023/01/11 06:54:31;;;;;;;2.42;2.05;;;;;;;;;;5085903;28;20067;-87
2023/01/11 06:56:56;;;;;;;1.25;1.05;;;;;;;;;;5083505;28;20024;-88
2023/01/11 06:59:22;;;;;;;2.72;1.80;;;;;;;;;;5108861;28;20027;-85
2023/01/11 07:01:47;;;;;;;3.05;2.20;;;;;;;;;;5117677;27;20440;-88
2023/01/11 07:04:13;;;;;;;2.47;1.73;;;;;;;;;;5084853;28;20028;-86
2023/01/11 07:06:38;;;;;;;1.65;1.33;;;;;;;;;;5085266;28;20020;-86
2023/01/11 07:09:04;;;;;;;1.00;1.00;;;;;;;;;;5102057;28;20107;-83
2023/01/11 07:11:31;;;;;;;1.55;1.08;;;;;;;;;;5097433;28;20034;-88
2023/01/11 07:13:56;;;;;;;2.83;1.20;;;;;;;;;;5082677;28;20028;-84
2023/01/11 07:16:21;;;;;;;0.93;0.90;;;;;;;;;;5083822;28;20034;-85
2023/01/11 07:18:47;;;;;;;0.80;0.75;;;;;;;;;;5096208;28;20093;-84
2023/01/11 07:21:12;;;;;;;4.38;1.38;;;;;;;;;;5101193;28;20036;-84
2023/01/11 07:23:38;;;;;;;1.42;1.33;;;;;;;;;;5077633;28;20032;-86
2023/01/11 07:26:03;;;;;;;9.90;6.07;;;;;;;;;;5101439;28;20097;-86
2023/01/11 07:28:29;;;;;;;5.22;3.40;;;;;;;;;;5102537;28;20089;-85
2023/01/11 07:30:55;;;;;;;5.03;1.88;;;;;;;;;;5100571;28;20051;-85
2023/01/11 07:33:20;;;;;;;3.35;2.08;;;;;;;;;;5097889;28;20381;-83
2023/01/11 07:35:48;;;;;;;3.53;1.77;;;;;;;;;;5087064;28;20420;-85
2023/01/11 07:38:13;;;;;;;1.95;1.35;;;;;;;;;;5106982;28;20104;-85
2023/01/11 07:40:38;;;;;;;1.38;1.20;;;;;;;;;;5122461;27;20055;-85
2023/01/11 07:43:10;;;;;;;0.90;0.85;;;;;;;;;;5104069;28;20165;-84
2023/01/11 07:45:37;;;;;;;1.27;1.17;;;;;;;;;;5088861;28;20027;-84
2023/01/11 07:56:30;;;;;;;1.42;1.23;;;;;;;;;;5068505;28;20437;-84
2023/01/11 07:58:56;;;;;;;1.33;1.23;;;;;;;;;;5079516;28;20036;-84
2023/01/11 08:01:22;;;;;;;1.40;1.17;;;;;;;;;;5076235;28;20036;-85
2023/01/11 08:03:48;;;;;;;3.03;1.15;;;;;;;;;;5077152;28;20020;-85
2023/01/11 08:06:13;;;;;;;1.77;1.10;;;;;;;;;;5075113;28;20020;-83
2023/01/11 08:08:40;;;;;;;1.52;1.08;;;;;;;;;;5079064;28;20037;-85
2023/01/11 08:16:33;;;;;;;1.65;1.50;;;;;;;;;;5075124;28;20078;-84
2023/01/11 08:19:00;;;;;;;1.00;0.85;;;;;;;;;;5073179;28;20430;-85
2023/01/11 08:21:26;;;;;;;1.73;1.23;;;;;;;;;;5071054;28;20457;-84
2023/01/11 08:23:52;;;;;;;2.78;1.33;;;;;;;;;;5070905;28;20027;-85
2023/01/11 08:26:18;;;;;;;1.35;1.25;;;;;;;;;;5074746;28;20028;-85
2023/01/11 08:28:43;;;;;;;0.73;0.73;;;;;;;;;;5079326;28;20119;-83
2023/01/11 08:31:09;;;;;;;0.90;0.77;;;;;;;;;;5076850;28;20024;-88
2023/01/11 08:33:35;;;;;;;2.30;0.95;;;;;;;;;;5073843;28;20032;-83
2023/01/11 08:36:04;;;;;;;0.98;0.65;;;;;;;;;;5067607;28;20068;-83
2023/01/11 08:38:30;;;;;;;2.25;0.73;;;;;;;;;;5071691;28;20077;-80
2023/01/11 08:40:55;;;;;;;2.05;0.60;;;;;;;;;;5072168;28;20442;-82
2023/01/11 08:43:21;;;;;;;1.23;0.85;;;;;;;;;;5072759;28;20020;-83
2023/01/11 08:45:46;;;;;;;0.30;0.30;;;;;;;;;;5069682;28;20020;-84
2023/01/11 08:48:12;;;;;;;4.03;1.15;;;;;;;;;;5073879;28;20058;-84
2023/01/11 08:50:37;;;;;;;1.27;0.90;;;;;;;;;;5071242;28;20481;-82
2023/01/11 08:53:03;;;;;;;1.40;0.80;;;;;;;;;;5065910;28;20114;-83
2023/01/11 08:55:29;;;;;;;1.20;0.77;;;;;;;;;;5073701;28;20052;-82
2023/01/11 08:57:56;;;;;;;1.83;1.15;;;;;;;;;;5079283;28;20549;-83
2023/01/11 09:00:21;;;;;;;0.95;0.88;;;;;;;;;;5072694;28;20036;-83
2023/01/11 09:02:47;;;;;;;1.25;1.13;;;;;;;;;;5076469;28;20032;-83
2023/01/11 09:05:12;;;;;;;0.47;0.47;;;;;;;;;;5074151;28;20020;-83
2023/01/11 09:07:38;;;;;;;0.68;0.68;;;;;;;;;;5060846;28;20435;-85
2023/01/11 09:10:04;;;;;;;6.63;1.73;;;;;;;;;;5058783;28;20033;-82
2023/01/11 09:12:31;;;;;;;0.50;0.50;;;;;;;;;;5051538;28;20036;-81
2023/01/11 09:14:57;;;;;;;2.13;0.98;;;;;;;;;;5050960;28;20457;-84
2023/01/11 09:17:22;;;;;;;0.60;0.60;;;;;;;;;;5056501;28;20044;-81
2023/01/11 09:19:48;;;;;;;1.27;1.17;;;;;;;;;;5065745;28;20033;-83
2023/01/11 09:22:13;;;;;;;2.55;1.52;;;;;;;;;;5060078;28;20025;-83
2023/01/11 09:24:39;;;;;;;1.55;1.33;;;;;;;;;;5057944;28;20040;-82
2023/01/11 09:27:04;;;;;;;3.55;1.15;;;;;;;;;;5058374;28;20035;-82
2023/01/11 09:29:30;;;;;;;1.27;1.13;;;;;;;;;;5066076;28;20040;-83
2023/01/11 09:31:55;;;;;;;1.65;0.82;;;;;;;;;;5058587;28;20028;-83
2023/01/11 09:34:21;;;;;;;0.60;0.60;;;;;;;;;;5063559;28;20025;-82
2023/01/11 09:36:47;;;;;;;1.00;0.95;;;;;;;;;;5062065;28;20036;-81
2023/01/11 09:39:17;;;;;;;2.95;1.15;;;;;;;;;;5058175;28;20034;-82
2023/01/11 09:42:07;;;;;;;0.88;0.85;;;;;;;;;;5056853;28;20029;-82
2023/01/11 09:44:48;;;;;;;1.08;0.85;;;;;;;;;;5055965;28;20389;-82
2023/01/11 09:47:46;;;;;;;0.45;0.45;;;;;;;;;;5053699;28;20128;-82
2023/01/11 09:50:26;;;;;;;1.65;0.90;;;;;;;;;;5049736;28;20714;-81
2023/01/11 09:52:56;;;;;;;0.80;0.80;;;;;;;;;;5054000;28;20032;-82
2023/01/11 09:55:32;;;;;;;1.00;0.90;;;;;;;;;;5052466;28;20400;-83
2023/01/11 09:58:35;;;;;;;0.75;0.60;;;;;;;;;;5054527;28;20033;-81
2023/01/11 10:01:09;;;;;;;2.10;1.52;;;;;;;;;;5052625;28;20029;-81
2023/01/11 10:03:50;;;;;;;1.50;1.40;;;;;;;;;;5057760;28;20052;-81
2023/01/11 10:06:39;;;;;;;0.65;0.65;;;;;;;;;;5056669;28;20031;-82
2023/01/11 10:09:23;;;;;;;2.25;1.30;;;;;;;;;;5040015;28;20485;-82
2023/01/11 10:12:18;;;;;;;1.42;0.63;;;;;;;;;;5076774;28;20428;-83
2023/01/11 10:15:15;;;;;;;0.85;0.85;;;;;;;;;;5060654;28;20020;-81
2023/01/11 10:18:23;;;;;;;0.40;0.40;;;;;;;;;;5056133;28;20056;-82
2023/01/11 10:20:54;;;;;;;1.60;0.80;;;;;;;;;;5052719;28;20027;-83
2023/01/11 10:23:40;;;;;;;1.95;0.70;;;;;;;;;;5060705;28;20051;-84
2023/01/11 10:26:26;;;;;;;0.98;0.88;;;;;;;;;;5055642;28;20473;-81
2023/01/11 10:35:57;;;;;;;1.13;0.60;;;;;;;;;;5052713;28;20028;-85
2023/01/11 10:41:01;;;;;;;;;;;;;;;;;;5054916;28;20105;-82
2023/01/11 10:43:28;;;;;;;3.17;2.03;;;;;;;;;;5056044;28;19916;-82
2023/01/11 10:46:06;;;;;;;0.93;0.90;;;;;;;;;;5057245;28;20020;-83
2023/01/11 10:48:43;;;;;;;1.67;1.30;;;;;;;;;;5057479;28;20408;-84
2023/01/11 10:51:28;;;;;;;3.95;1.00;;;;;;;;;;5056573;28;20024;-82
2023/01/11 10:54:15;;;;;;;0.95;0.80;;;;;;;;;;5053197;28;20033;-85
2023/01/11 10:56:40;;;;;;;0.75;0.75;;;;;;;;;;5061052;28;20047;-85
2023/01/11 10:59:37;;;;;;;0.93;0.75;;;;;;;;;;5057666;28;20032;-83
2023/01/11 11:02:27;;;;;;;3.13;1.08;;;;;;;;;;5061180;28;20071;-86
2023/01/11 11:04:52;;;;;;;1.02;1.02;;;;;;;;;;5059070;28;20516;-85
2023/01/11 11:07:33;;;;;;;3.58;1.70;;;;;;;;;;5058612;28;20116;-84
2023/01/11 11:10:07;;;;;;;1.67;1.25;;;;;;;;;;5061876;28;20020;-83
2023/01/11 11:12:36;;;;;;;3.17;1.75;;;;;;;;;;5057412;28;20465;-82
2023/01/11 11:15:13;;;;;;;1.65;1.10;;;;;;;;;;5054793;28;20023;-81
2023/01/11 11:17:43;;;;;;;2.35;1.70;;;;;;;;;;5063302;28;20427;-81
2023/01/11 11:20:20;;;;;;;1.27;1.00;;;;;;;;;;5060268;28;20024;-83
2023/01/11 11:22:50;;;;;;;0.55;0.55;;;;;;;;;;5059331;28;20404;-83
2023/01/11 11:25:21;;;;;;;1.42;0.93;;;;;;;;;;5061119;28;20358;-82
2023/01/11 11:27:54;;;;;;;0.90;0.80;;;;;;;;;;5055705;28;20036;-87
2023/01/11 11:30:30;;;;;;;1.58;1.05;;;;;;;;;;5055048;28;20068;-80
2023/01/11 11:33:00;;;;;;;1.23;1.10;;;;;;;;;;5044236;28;20025;-83
2023/01/11 11:35:35;;;;;;;1.33;0.93;;;;;;;;;;5051447;28;20033;-82
2023/01/11 11:38:01;;;;;;;0.95;0.95;;;;;;;;;;5049759;28;20043;-83
2023/01/11 11:40:29;;;;;;;0.60;0.60;;;;;;;;;;5051438;28;20028;-84
2023/01/11 11:43:22;;;;;;;0.88;0.77;;;;;;;;;;5054846;28;20054;-83
2023/01/11 11:45:56;;;;;;;1.20;0.90;;;;;;;;;;5045636;28;20040;-82
2023/01/11 11:48:24;;;;;;;2.17;0.93;;;;;;;;;;5052655;28;20037;-84
2023/01/11 11:50:50;;;;;;;1.02;0.95;;;;;;;;;;5050099;28;20049;-82
2023/01/11 11:53:28;;;;;;;0.85;0.73;;;;;;;;;;5044812;28;20033;-82
2023/01/11 11:55:54;;;;;;;0.70;0.70;;;;;;;;;;5042200;28;20067;-82
2023/01/11 11:58:22;;;;;;;0.65;0.65;;;;;;;;;;5052988;28;20480;-82
2023/01/11 12:00:50;;;;;;;1.85;1.25;;;;;;;;;;5055209;28;20346;-84
2023/01/11 12:03:22;;;;;;;1.10;0.73;;;;;;;;;;5051465;28;20028;-86
2023/01/11 12:06:08;;;;;;;1.10;1.00;;;;;;;;;;5050005;28;20025;-87
2023/01/11 12:08:34;;;;;;;1.83;0.95;;;;;;;;;;5056914;28;20053;-82
2023/01/11 12:11:04;;;;;;;1.33;1.23;;;;;;;;;;5057745;28;20107;-85
2023/01/11 12:13:38;;;;;;;1.10;1.00;;;;;;;;;;5058275;28;20032;-86
2023/01/11 12:16:15;;;;;;;0.63;0.63;;;;;;;;;;5054699;28;20029;-87
2023/01/11 12:18:42;;;;;;;1.65;1.30;;;;;;;;;;5054241;28;20028;-84
2023/01/11 12:21:30;;;;;;;1.27;1.17;;;;;;;;;;5062682;28;20040;-84
2023/01/11 12:24:22;;;;;;;1.77;1.17;;;;;;;;;;5057213;28;20427;-82
2023/01/11 12:27:07;;;;;;;0.93;0.88;;;;;;;;;;5051265;28;20464;-80
2023/01/11 12:29:56;;;;;;;2.28;1.67;;;;;;;;;;5051216;28;20032;-80
2023/01/11 12:32:24;;;;;;;2.45;1.02;;;;;;;;;;5051413;28;20052;-82
2023/01/11 12:35:28;;;;;;;1.08;0.70;;;;;;;;;;5050904;28;20112;-80
2023/01/11 12:37:57;;;;;;;0.60;0.60;;;;;;;;;;5052751;28;20162;-82
2023/01/11 12:40:38;;;;;;;2.42;1.13;;;;;;;;;;5060624;28;20086;-81
2023/01/11 12:43:21;;;;;;;0.57;0.57;;;;;;;;;;5062291;28;20060;-83
2023/01/11 12:46:14;;;;;;;1.63;1.17;;;;;;;;;;5059505;28;20025;-84
2023/01/11 12:48:51;;;;;;;1.17;0.77;;;;;;;;;;5060450;28;20078;-83
2023/01/11 12:51:52;;;;;;;1.08;0.80;;;;;;;;;;5057421;28;20033;-84
2023/01/11 12:54:22;;;;;;;5.97;1.67;;;;;;;;;;5061183;28;20417;-83
2023/01/11 12:57:13;;;;;;;3.10;2.80;;;;;;;;;;5059533;28;20032;-83
2023/01/11 13:00:18;;;;;;;4.38;1.95;;;;;;;;;;5063830;28;20460;-83
2023/01/11 13:03:07;;;;;;;3.60;1.40;;;;;;;;;;5058046;28;20024;-82
2023/01/11 13:05:46;;;;;;;3.42;1.83;;;;;;;;;;5056876;28;20033;-83
2023/01/11 13:08:24;;;;;;;3.17;2.85;;;;;;;;;;5052169;28;20037;-82
2023/01/11 13:11:33;;;;;;;3.22;1.73;;;;;;;;;;5060270;28;20104;-83
2023/01/11 13:14:17;;;;;;;4.32;2.28;;;;;;;;;;5063460;28;20095;-83
2023/01/11 13:17:18;;;;;;;1.48;1.38;;;;;;;;;;5065052;28;20557;-84
2023/01/11 13:19:57;;;;;;;1.08;0.75;;;;;;;;;;5055827;28;20391;-82
2023/01/11 13:22:31;;;;;;;1.10;1.02;;;;;;;;;;5058933;28;20037;-83
2023/01/11 13:24:58;;;;;;;2.92;2.33;;;;;;;;;;5058614;28;20020;-84
2023/01/11 13:27:25;;;;;;;2.80;2.13;;;;;;;;;;5059376;28;20047;-82
2023/01/11 13:29:55;;;;;;;6.25;3.65;;;;;;;;;;5064093;28;20048;-85
2023/01/11 13:32:28;;;;;;;3.25;1.50;;;;;;;;;;5061123;28;20115;-83
2023/01/11 13:35:12;;;;;;;4.50;1.77;;;;;;;;;;5063757;28;20024;-85
2023/01/11 13:37:53;;;;;;;3.10;1.88;;;;;;;;;;5058991;28;20534;-83
2023/01/11 13:40:23;;;;;;;0.95;0.90;;;;;;;;;;5056723;28;20032;-84
2023/01/11 13:43:09;;;;;;;;;;;;;;;;;;5064260;28;20033;-85
2023/01/11 13:45:40;;;;;;;2.42;1.00;;;;;;;;;;5059406;28;19920;-85
2023/01/11 13:48:24;;;;;;;1.00;0.90;;;;;;;;;;5060804;28;20076;-82
2023/01/11 13:51:08;;;;;;;1.20;0.98;;;;;;;;;;5064512;28;20024;-84
2023/01/11 13:53:42;;;;;;;0.77;0.77;;;;;;;;;;5063130;28;20032;-81
2023/01/11 13:56:29;;;;;;;1.58;0.98;;;;;;;;;;5063135;28;20103;-82
2023/01/11 13:58:58;;;;;;;1.40;1.30;;;;;;;;;;5059114;28;20043;-83
2023/01/11 14:01:41;;;;;;;0.82;0.82;;;;;;;;;;5058211;28;20473;-82
2023/01/11 14:04:17;;;;;;;1.92;1.20;;;;;;;;;;5060769;28;20472;-82
2023/01/11 14:07:04;;;;;;;0.45;0.45;;;;;;;;;;5058191;28;20460;-84
2023/01/11 14:09:52;;;;;;;3.88;2.10;;;;;;;;;;5056249;28;20038;-84
2023/01/11 14:12:36;;;;;;;1.17;0.80;;;;;;;;;;5055554;28;20465;-85
2023/01/11 14:15:19;;;;;;;0.75;0.75;;;;;;;;;;5057104;28;20021;-87
2023/01/11 14:18:22;;;;;;;2.38;1.65;;;;;;;;;;5058567;28;20025;-86
2023/01/11 14:21:06;;;;;;;1.00;0.93;;;;;;;;;;5061019;28;20039;-85
2023/01/11 14:23:48;;;;;;;1.77;0.93;;;;;;;;;;5061792;28;20031;-84
2023/01/11 14:26:51;;;;;;;0.93;0.93;;;;;;;;;;5054366;28;20380;-86
2023/01/11 14:29:35;;;;;;;1.73;1.10;;;;;;;;;;5060761;28;20025;-86
2023/01/11 14:32:19;;;;;;;1.38;0.80;;;;;;;;;;5054504;28;20054;-83
2023/01/11 14:34:51;;;;;;;0.40;0.40;;;;;;;;;;5056517;28;20468;-83
2023/01/11 14:37:24;;;;;;;0.90;0.90;;;;;;;;;;5063733;28;20020;-83
2023/01/11 14:40:26;;;;;;;0.80;0.75;;;;;;;;;;5058215;28;20025;-82
2023/01/11 14:43:11;;;;;;;1.65;1.05;;;;;;;;;;5062315;28;20466;-82
2023/01/11 14:45:55;;;;;;;2.10;1.17;;;;;;;;;;5057187;28;20052;-82
2023/01/11 14:48:48;;;;;;;2.50;1.52;;;;;;;;;;5055868;28;20095;-83
2023/01/11 14:51:38;;;;;;;3.28;2.42;;;;;;;;;;5057194;28;20472;-84
2023/01/11 14:54:12;;;;;;;;;;;;;;;;;;5060107;28;20099;-83
2023/01/11 14:56:41;;;;;;;2.83;2.00;;;;;;;;;;5060857;28;20288;-84
2023/01/11 14:59:22;;;;;;;1.55;1.05;;;;;;;;;;5055105;28;20025;-85
2023/01/11 15:02:03;;;;;;;5.03;2.13;;;;;;;;;;5052247;28;20028;-84
2023/01/11 15:04:37;;;;;;;3.08;2.53;;;;;;;;;;5053010;28;20044;-84
2023/01/11 15:07:27;;;;;;;3.97;2.70;;;;;;;;;;5059064;28;20028;-83
2023/01/11 15:09:53;;;;;;;4.05;2.13;;;;;;;;;;5054766;28;20115;-81
2023/01/11 15:12:22;;;;;;;1.85;1.45;;;;;;;;;;5056981;28;20017;-81
2023/01/11 15:15:00;;;;;;;4.65;2.63;;;;;;;;;;5056314;28;20086;-83
2023/01/11 15:20:15;;;;;;;5.60;2.35;;;;;;;;;;5056261;28;20042;-83
2023/01/11 15:22:41;;;;;;;1.70;1.60;;;;;;;;;;5064965;28;20033;-84
2023/01/11 15:25:25;;;;;;;3.90;1.90;;;;;;;;;;5057444;28;20464;-81
2023/01/11 15:27:52;;;;;;;4.03;2.75;;;;;;;;;;5057758;28;20495;-82
2023/01/11 15:30:29;;;;;;;4.25;3.20;;;;;;;;;;5052136;28;20029;-83
2023/01/11 15:33:16;;;;;;;3.33;2.28;;;;;;;;;;5051295;28;20492;-83
2023/01/11 15:35:54;;;;;;;5.55;2.17;;;;;;;;;;5052630;28;20064;-82
2023/01/11 15:38:22;;;;;;;4.63;3.22;;;;;;;;;;5059856;28;20074;-79
2023/01/11 15:40:51;;;;;;;3.33;1.83;;;;;;;;;;5054103;28;20526;-82
2023/01/11 15:43:45;;;;;;;3.53;2.55;;;;;;;;;;5051341;28;20029;-82
2023/01/11 15:46:53;;;;;;;2.65;2.30;;;;;;;;;;5063436;28;20017;-79
2023/01/11 15:49:22;;;;;;;2.13;1.65;;;;;;;;;;5061213;28;20054;-82
2023/01/11 15:52:22;;;;;;;6.00;2.40;;;;;;;;;;5048480;28;20060;-81
2023/01/11 15:54:51;;;;;;;1.25;1.20;;;;;;;;;;5052135;28;20076;-80
2023/01/11 15:57:26;;;;;;;1.73;1.63;;;;;;;;;;5052487;28;20089;-81
2023/01/11 16:00:14;;;;;;;5.15;2.75;;;;;;;;;;5051045;28;20025;-81
2023/01/11 16:03:01;;;;;;;2.20;2.00;;;;;;;;;;5048062;28;20033;-81
2023/01/11 16:05:32;;;;;;;4.43;2.58;;;;;;;;;;5046622;28;20530;-79
2023/01/11 16:07:58;;;;;;;4.85;2.47;;;;;;;;;;5054335;28;20164;-80
2023/01/11 16:10:43;;;;;;;6.55;2.97;;;;;;;;;;5060323;28;20095;-79